Terminal Aerodrome Forecast
Issued by NWS Albuquerque, NM

Home | Current Version | Previous Version | Text Only | Print | Product List | Glossary On
Versions: 1 2 3 4 5 6 7 8 9 10 11 12 13 14 15
530
FTUS45 KABQ 240538
TAFABQ
TAF
KABQ 240538Z 2406/2506 08010KT P6SM SKC
      TEMPO 2406/2410 08010G18KT
     FM241000 01006KT P6SM SKC
     FM241500 25005KT P6SM SKC
     FM242100 28018G25KT P6SM SKC
     FM250230 25008KT P6SM SKC=

USA.gov is the U.S. government's official web portal to all federal, state and local government web resources and services.